createdAt,value
2018-02-03T00:01:53.293Z,94811.08
2018-02-03T00:04:20.858Z,94835.38
2018-02-03T00:06:48.500Z,94844.67
2018-02-03T00:09:16.037Z,94812.81
2018-02-03T00:11:43.608Z,94820.22
2018-02-03T00:14:11.302Z,94806.13
2018-02-03T00:16:38.849Z,94746.73
2018-02-03T00:19:09.182Z,94776.19
2018-02-03T00:21:40.699Z,94784.61
2018-02-03T00:24:08.489Z,94789.95
2018-02-03T00:26:36.087Z,94799.30
2018-02-03T00:29:03.622Z,94791.28
2018-02-03T00:31:31.301Z,94770.15
2018-02-03T00:33:58.839Z,94759.83
2018-02-03T00:36:26.384Z,94769.58
2018-02-03T00:38:53.914Z,94777.45
2018-02-03T00:41:21.448Z,94785.00
2018-02-03T00:43:48.994Z,94719.39
2018-02-03T00:46:16.532Z,94742.09
2018-02-03T00:48:49.533Z,94774.31
2018-02-03T00:51:21.134Z,94777.05
2018-02-03T00:53:56.457Z,94760.22
2018-02-03T00:56:24.152Z,94765.56
2018-02-03T00:58:51.771Z,94766.14
2018-02-03T01:01:19.567Z,94765.17
2018-02-03T01:03:47.089Z,94777.20
2018-02-03T01:06:14.622Z,94771.85
2018-02-03T01:08:42.163Z,94758.89
2018-02-03T01:11:09.772Z,94751.98
2018-02-03T01:13:37.329Z,94754.97
2018-02-03T01:16:04.898Z,94743.24
2018-02-03T01:18:32.547Z,94743.24
2018-02-03T01:21:00.094Z,94746.95
2018-02-03T01:23:27.620Z,94731.46
2018-02-03T01:25:55.149Z,94697.11
2018-02-03T01:28:22.684Z,94708.28
2018-02-03T01:30:50.214Z,94712.50
2018-02-03T01:33:17.744Z,94710.23
2018-02-03T01:35:45.287Z,94684.76
2018-02-03T01:38:12.802Z,94687.58
2018-02-03T01:40:40.329Z,94686.03
2018-02-03T01:43:07.872Z,94678.95
2018-02-03T01:45:35.393Z,94673.86
2018-02-03T01:48:03.037Z,94679.50
2018-02-03T01:50:30.579Z,94676.82
2018-02-03T01:52:58.119Z,94676.97
2018-02-03T01:55:25.641Z,94695.23
2018-02-03T01:57:53.297Z,94664.49
2018-02-03T02:00:20.840Z,94668.50
2018-02-03T02:02:48.373Z,94666.20
2018-02-03T02:05:16.043Z,94659.36
2018-02-03T02:07:43.548Z,94654.27
2018-02-03T02:10:11.090Z,94643.97
2018-02-03T02:12:38.650Z,94644.91
2018-02-03T02:15:06.189Z,94659.43
2018-02-03T02:17:33.701Z,94647.88
2018-02-03T02:20:01.222Z,94648.06
2018-02-03T02:22:28.883Z,94666.44
2018-02-03T02:24:56.413Z,94664.41
2018-02-03T02:27:23.954Z,94664.41
2018-02-03T02:29:51.497Z,94668.23
2018-02-03T02:32:19.024Z,94675.10
2018-02-03T02:34:46.564Z,94661.41
2018-02-03T02:37:14.106Z,94670.37
2018-02-03T02:39:41.615Z,94663.14
2018-02-03T02:42:09.277Z,94677.69
2018-02-03T02:44:36.814Z,94647.50
2018-02-03T02:47:04.345Z,94632.80
2018-02-03T02:49:31.862Z,94639.48
2018-02-03T02:51:59.395Z,94648.66
2018-02-03T02:54:27.073Z,94640.81
2018-02-03T02:56:54.624Z,94625.72
2018-02-03T02:59:22.274Z,94638.30
2018-02-03T03:01:49.813Z,94622.11
2018-02-03T03:04:17.349Z,94603.21
2018-02-03T03:06:44.991Z,94593.16
2018-02-03T03:09:25.217Z,94617.30
2018-02-03T03:11:54.319Z,94611.95
2018-02-03T03:14:22.841Z,94606.06
2018-02-03T03:16:55.626Z,94612.50
2018-02-03T03:19:23.211Z,94625.08
2018-02-03T03:21:50.820Z,94631.61
2018-02-03T03:24:18.358Z,94629.88
2018-02-03T03:29:24.962Z,94626.02
2018-02-03T03:31:54.780Z,94644.18
2018-02-03T03:34:24.168Z,94611.50
2018-02-03T03:37:00.054Z,94624.41
2018-02-03T03:39:27.705Z,94628.88
2018-02-03T03:41:55.235Z,94593.09
2018-02-03T03:44:22.762Z,94600.17
2018-02-03T03:46:50.295Z,94609.92
2018-02-03T03:49:17.866Z,94597.34
2018-02-03T03:51:45.409Z,94579.73
2018-02-03T03:54:13.159Z,94598.28
2018-02-03T03:56:40.707Z,94576.08
2018-02-03T03:59:08.259Z,94606.94
2018-02-03T04:01:35.853Z,94594.91
2018-02-03T04:04:03.396Z,94580.76
2018-02-03T04:06:31.050Z,94580.91
2018-02-03T04:08:58.844Z,94596.16
2018-02-03T04:11:26.424Z,94560.52
2018-02-03T04:13:53.979Z,94571.65
2018-02-03T04:16:21.553Z,94601.35
2018-02-03T04:18:49.192Z,94580.36
2018-02-03T04:21:16.785Z,94527.73
2018-02-03T04:23:44.511Z,94559.37
2018-02-03T04:26:12.062Z,94585.47
2018-02-03T04:28:39.716Z,94581.80
2018-02-03T04:31:07.417Z,94582.98
2018-02-03T04:33:34.944Z,94586.34
2018-02-03T04:36:02.470Z,94573.77
2018-02-03T04:38:30.035Z,94575.72
2018-02-03T04:40:57.591Z,94545.56
2018-02-03T04:43:25.135Z,94570.97
2018-02-03T04:45:52.692Z,94556.80
2018-02-03T04:48:20.346Z,94517.65
2018-02-03T04:50:47.943Z,94535.96
2018-02-03T04:53:15.552Z,94557.49
2018-02-03T04:55:43.112Z,94563.48
2018-02-03T04:58:10.705Z,94533.35
2018-02-03T05:00:38.399Z,94536.02
2018-02-03T05:03:05.930Z,94563.48
2018-02-03T05:05:33.506Z,94563.69
2018-02-03T05:08:01.053Z,94531.62
2018-02-03T05:10:28.622Z,94580.67
2018-02-03T05:12:56.334Z,94571.34
2018-02-03T05:15:23.920Z,94547.11
2018-02-03T05:17:51.474Z,94545.16
2018-02-03T05:20:19.057Z,94563.08
2018-02-03T05:22:46.694Z,94560.26
2018-02-03T05:25:14.482Z,94557.73
2018-02-03T05:27:42.000Z,94577.23
2018-02-03T05:30:09.720Z,94585.73
2018-02-03T05:32:37.234Z,94555.61
2018-02-03T05:35:04.787Z,94543.73
2018-02-03T05:37:32.331Z,94572.19
2018-02-03T05:39:59.880Z,94568.19
2018-02-03T05:42:27.411Z,94553.81
2018-02-03T05:44:54.959Z,94552.63
2018-02-03T05:47:22.597Z,94517.67
2018-02-03T05:52:32.152Z,94516.43
2018-02-03T05:54:59.671Z,94546.46
2018-02-03T05:57:27.328Z,94530.42
2018-02-03T05:59:54.858Z,94533.34
2018-02-03T06:02:22.373Z,94525.17
2018-02-03T06:04:49.895Z,94542.42
2018-02-03T06:07:17.442Z,94540.97
2018-02-03T06:09:44.981Z,94527.28
2018-02-03T06:12:12.641Z,94553.13
2018-02-03T06:14:40.170Z,94545.20
2018-02-03T06:17:07.691Z,94562.11
2018-02-03T06:19:35.235Z,94566.05
2018-02-03T06:22:05.458Z,94569.67
2018-02-03T06:24:33.161Z,94573.53
2018-02-03T06:27:00.704Z,94583.30
2018-02-03T06:29:28.384Z,94570.42
2018-02-03T06:31:56.045Z,94557.13
2018-02-03T06:34:23.574Z,94569.67
2018-02-03T06:36:51.122Z,94549.27
2018-02-03T06:39:18.673Z,94557.80
2018-02-03T06:41:46.246Z,94568.70
2018-02-03T06:44:13.894Z,94536.34
2018-02-03T06:46:41.461Z,94557.94
2018-02-03T06:49:08.991Z,94578.88
2018-02-03T06:51:36.515Z,94543.42
2018-02-03T06:54:04.078Z,94560.69
2018-02-03T06:56:31.737Z,94552.33
2018-02-03T06:58:59.267Z,94501.98
2018-02-03T07:01:26.910Z,94541.87
2018-02-03T07:03:54.444Z,94553.03
2018-02-03T07:06:21.983Z,94496.67
2018-02-03T07:08:49.503Z,94486.93
2018-02-03T07:11:17.018Z,94551.14
2018-02-03T07:13:44.674Z,94532.12
2018-02-03T07:16:12.185Z,94478.59
2018-02-03T07:18:39.748Z,94516.58
2018-02-03T07:21:07.286Z,94527.34
2018-02-03T07:23:34.808Z,94506.62
2018-02-03T07:26:02.379Z,94528.55
2018-02-03T07:28:29.928Z,94524.41
2018-02-03T07:30:57.633Z,94506.03
2018-02-03T07:33:25.190Z,94504.83
2018-02-03T08:43:01.244Z,94353.68
2018-02-03T08:45:28.824Z,94390.75
2018-02-03T08:47:56.355Z,94371.75
2018-02-03T08:50:23.877Z,94334.25
2018-02-03T18:42:43.966Z,94615.41
2018-02-03T18:48:19.879Z,94542.81
2018-02-03T18:50:48.158Z,94616.87
2018-02-03T18:53:16.534Z,94622.14
2018-02-03T18:55:45.221Z,94616.31
2018-02-03T18:58:15.133Z,94609.23
2018-02-03T19:00:43.523Z,94596.66
2018-02-03T19:03:12.198Z,94607.14
2018-02-03T19:05:40.437Z,94616.39
2018-02-03T19:08:09.266Z,94621.08
2018-02-03T19:10:38.571Z,94608.00
2018-02-03T19:13:06.942Z,94599.16
2018-02-03T19:15:35.217Z,94600.22
2018-02-03T19:18:03.703Z,94582.14
2018-02-03T19:20:32.382Z,94593.97
2018-02-03T19:23:00.711Z,94590.66
2018-02-03T19:25:29.453Z,94600.13
2018-02-03T19:27:57.826Z,94588.52
2018-02-03T19:30:26.086Z,94607.73
2018-02-03T19:32:54.578Z,94607.77
2018-02-03T19:35:23.370Z,94597.64
2018-02-03T19:37:51.932Z,94594.66
2018-02-03T19:40:20.002Z,94590.34
2018-02-03T19:42:48.706Z,94576.02
2018-02-03T19:45:17.499Z,94560.66
2018-02-03T19:47:45.870Z,94556.86
2018-02-03T19:50:14.354Z,94561.77
2018-02-03T19:52:42.609Z,94570.34
2018-02-03T19:55:11.106Z,94586.52
2018-02-03T19:57:39.486Z,94599.17
2018-02-03T20:00:07.948Z,94578.95
2018-02-03T20:02:36.451Z,94570.68
2018-02-03T20:05:05.031Z,94593.25
2018-02-03T20:07:33.338Z,94602.00
2018-02-03T20:10:02.059Z,94598.03
2018-02-03T20:12:30.679Z,94586.32
2018-02-03T20:16:13.634Z,94569.57
2018-02-03T20:18:41.618Z,94566.86
2018-02-03T20:21:09.574Z,94558.50
2018-02-03T20:23:38.018Z,94563.08
2018-02-03T20:26:06.225Z,94557.19
2018-02-03T20:28:34.879Z,94558.13
2018-02-03T20:31:03.978Z,94552.80
2018-02-03T20:33:32.658Z,94552.83
2018-02-03T20:36:01.442Z,94545.80
2018-02-03T20:38:29.827Z,94539.75
2018-02-03T20:40:57.815Z,94558.56
2018-02-03T20:43:25.798Z,94545.16
2018-02-03T22:55:15.021Z,94442.91
2018-02-03T22:57:44.996Z,94435.97
2018-02-03T23:00:17.704Z,94430.83
2018-02-03T23:02:52.236Z,94430.13
2018-02-03T23:05:21.496Z,94431.23
2018-02-03T23:07:51.353Z,94420.02
2018-02-03T23:10:20.040Z,94415.45
2018-02-03T23:12:48.915Z,94416.00
2018-02-03T23:15:17.741Z,94419.81
2018-02-03T23:17:46.800Z,94423.67
2018-02-03T23:20:15.692Z,94422.39
2018-02-03T23:22:45.282Z,94421.89
2018-02-03T23:25:13.891Z,94422.13
2018-02-03T23:27:44.171Z,94415.28
2018-02-03T23:30:13.198Z,94417.41
2018-02-03T23:32:42.196Z,94422.92
2018-02-03T23:35:11.078Z,94421.79
2018-02-03T23:37:39.924Z,94434.33
2018-02-03T23:40:08.961Z,94425.44
2018-02-03T23:42:38.156Z,94428.56
2018-02-03T23:45:07.999Z,94418.06
2018-02-03T23:47:36.442Z,94408.94
2018-02-03T23:50:05.134Z,94385.91
2018-02-03T23:52:34.131Z,94387.73
2018-02-03T23:55:02.980Z,94383.78
2018-02-03T23:57:32.200Z,94381.84
